^^
Station Historical Data
Daily Summary for January 1, 2018 Units:  Metric    English   Both
« Previous Day
Next Day »
Daily Weekly Monthly Yearly Custom
  High: Low: Average:
Temperature: -17.8 °C 16.9 °C 24.7 °C
Dew Point: -17.8 °C -15.2 °C -5.2 °C
Humidity: Humidity% 7% 14%
Wind Speed: 0km/h 0km/h 4km/h
Wind Gust: 0km/h - -
Wind- - SSE
Pressure: 0 hPa 1016.8 hPa -
Precipitation: 0 mm    
Historical Graphs
 
 
Tabular Data for January 1, 2018
Time Temperature Dew Point Pressure Wind Wind Speed Wind Gust Humidity Rainfall Rate (Hourly) solar Conditions
-17.8 °C -17.8 °C 0 hPa Calm     Humidity% 0 mm SolarRadiationWatts/m^2 W/m2 Conditions
00:00 19.7 °C 3 °C 1019.9 hPa WSW 3.2 km/h 3.2 km/h 33% 0 mm 0.0 W/m2
00:06 19.6 °C 2.9 °C 1019.9 hPa Calm   6.4 km/h 33% 0 mm 0.0 W/m2
00:11 19.4 °C 2.7 °C 1019.9 hPa Calm   4.8 km/h 33% 0 mm 0.0 W/m2
00:16 19.4 °C 2.7 °C 1019.9 hPa Calm   4.8 km/h 33% 0 mm 0.0 W/m2
00:21 19.3 °C 2.6 °C 1019.9 hPa Calm   1.6 km/h 33% 0 mm 0.0 W/m2
00:26 19.2 °C 2.5 °C 1019.5 hPa Calm     33% 0 mm 0.0 W/m2
00:31 19.1 °C 2 °C 1019.5 hPa Calm   3.2 km/h 32% 0 mm 0.0 W/m2
00:37 18.9 °C 0.9 °C 1019.5 hPa Calm   1.6 km/h 30% 0 mm 0.0 W/m2
00:42 18.9 °C 0.9 °C 1019.5 hPa Calm     30% 0 mm 0.0 W/m2
00:48 18.8 °C 0.9 °C 1019.5 hPa Calm   1.6 km/h 30% 0 mm 0.0 W/m2
00:53 18.7 °C 0.8 °C 1019.2 hPa Calm   1.6 km/h 30% 0 mm 0.0 W/m2
00:58 18.6 °C 0.2 °C 1019.2 hPa Calm   1.6 km/h 29% 0 mm 0.0 W/m2
01:03 18.4 °C -0.4 °C 1019.2 hPa Calm   1.6 km/h 28% 0 mm 0.0 W/m2
01:08 18.4 °C -0.9 °C 1019.2 hPa ESE 4.7 km/h 8 km/h 27% 0 mm 0.0 W/m2
01:13 18.4 °C -1.5 °C 1019.2 hPa Calm   1.6 km/h 26% 0 mm 0.0 W/m2
01:18 18.5 °C -1.9 °C 1019.2 hPa Calm     25% 0 mm 0.0 W/m2
01:23 18.4 °C -2.5 °C 1019.2 hPa Calm     24% 0 mm 0.0 W/m2
01:28 18.4 °C -3.1 °C 1019.2 hPa Calm   1.6 km/h 23% 0 mm 0.0 W/m2
01:33 18.4 °C -3.1 °C 1019.2 hPa Calm     23% 0 mm 0.0 W/m2
01:39 18.4 °C -3.1 °C 1019.2 hPa Calm     23% 0 mm 0.0 W/m2
01:44 18.3 °C -2.6 °C 1019.2 hPa Calm     24% 0 mm 0.0 W/m2
01:49 18.2 °C -2.7 °C 1019.2 hPa Calm     24% 0 mm 0.0 W/m2
01:54 18.2 °C -3.3 °C 1019.2 hPa Calm   1.6 km/h 23% 0 mm 0.0 W/m2
01:58 18.1 °C -5.2 °C 1019.2 hPa WSW 1.4 km/h 1.6 km/h 20% 0 mm 0.0 W/m2
02:03 18.1 °C -5.2 °C 1019.2 hPa SW 1.4 km/h 3.2 km/h 20% 0 mm 0.0 W/m2
02:08 18.1 °C -5.9 °C 1019.2 hPa Calm   6.4 km/h 19% 0 mm 0.0 W/m2
02:13 18.2 °C -5.8 °C 1019.2 hPa Calm   1.6 km/h 19% 0 mm 0.0 W/m2
02:15 18.2 °C -6.5 °C 1019.2 hPa SW 3.2 km/h 4.8 km/h 18% 0 mm 0.0 W/m2
02:21 18.3 °C -6.4 °C 1019.2 hPa Calm   4.8 km/h 18% 0 mm 0.0 W/m2
02:27 18.4 °C -6.4 °C 1019.2 hPa Calm   4.8 km/h 18% 0 mm 0.0 W/m2
02:32 18.4 °C -5.7 °C 1019.2 hPa Calm     19% 0 mm 0.0 W/m2
02:37 18.3 °C -5.7 °C 1019.2 hPa Calm   3.2 km/h 19% 0 mm 0.0 W/m2
02:42 18.2 °C -5.8 °C 1019.2 hPa Calm     19% 0 mm 0.0 W/m2
02:47 18.1 °C -5.9 °C 1019.2 hPa Calm     19% 0 mm 0.0 W/m2
02:52 17.9 °C -5.4 °C 1019.2 hPa Calm     20% 0 mm 0.0 W/m2
02:57 17.7 °C -5.6 °C 1019.2 hPa Calm     20% 0 mm 0.0 W/m2
03:02 17.6 °C -5 °C 1019.2 hPa Calm     21% 0 mm 0.0 W/m2
03:08 17.4 °C -5.2 °C 1019.2 hPa Calm     21% 0 mm 0.0 W/m2
03:13 17.2 °C -4.1 °C 1019.2 hPa Calm     23% 0 mm 0.0 W/m2
03:18 17.1 °C -5.4 °C 1019.2 hPa Calm     21% 0 mm 0.0 W/m2
03:23 16.9 °C -7.6 °C 1019.2 hPa Calm   4.8 km/h 18% 0 mm 0.0 W/m2
03:28 17.1 °C -8.2 °C 1019.2 hPa SSW 6.4 km/h 8 km/h 17% 0 mm 0.0 W/m2
03:29 17.2 °C -8.1 °C 1019.2 hPa SSW 3.2 km/h 8 km/h 17% 0 mm 0.0 W/m2
03:34 17.4 °C -7.9 °C 1019.2 hPa Calm   6.4 km/h 17% 0 mm 0.0 W/m2
03:39 17.7 °C -8.5 °C 1019.2 hPa Calm   4.8 km/h 16% 0 mm 0.0 W/m2
03:44 17.9 °C -8.3 °C 1019.2 hPa SSE 1.4 km/h 6.4 km/h 16% 0 mm 0.0 W/m2
03:49 18.2 °C -8.1 °C 1019.2 hPa SSW 4.7 km/h 9.7 km/h 16% 0 mm 0.0 W/m2
03:55 18.4 °C -8.7 °C 1019.2 hPa SW 6.4 km/h 11.3 km/h 15% 0 mm 0.0 W/m2
04:00 18.6 °C -8.6 °C 1019.2 hPa Calm   9.7 km/h 15% 0 mm 0.0 W/m2
04:05 18.6 °C -8.6 °C 1019.2 hPa Calm   6.4 km/h 15% 0 mm 0.0 W/m2
04:10 18.5 °C -7.8 °C 1019.2 hPa Calm   3.2 km/h 16% 0 mm 0.0 W/m2
04:15 18.4 °C -7.9 °C 1018.8 hPa SSW 6.4 km/h 8 km/h 16% 0 mm 0.0 W/m2
04:17 18.4 °C -7.9 °C 1018.8 hPa Calm   4.8 km/h 16% 0 mm 0.0 W/m2
04:22 18.2 °C -8.1 °C 1018.8 hPa Calm   1.6 km/h 16% 0 mm 0.0 W/m2
04:27 18.2 °C -8.9 °C 1018.8 hPa Calm   1.6 km/h 15% 0 mm 0.0 W/m2
04:29 18.1 °C -8.1 °C 1018.8 hPa Calm   1.6 km/h 16% 0 mm 0.0 W/m2
04:34 18.1 °C -8.1 °C 1018.8 hPa SSW 1.4 km/h 3.2 km/h 16% 0 mm 0.0 W/m2
04:39 18 °C -8.2 °C 1018.8 hPa Calm   1.6 km/h 16% 0 mm 0.0 W/m2
04:44 17.9 °C -8.3 °C 1018.8 hPa Calm     16% 0 mm 0.0 W/m2
04:49 17.8 °C -9.2 °C 1018.8 hPa Calm   1.6 km/h 15% 0 mm 0.0 W/m2
04:54 17.7 °C -9.3 °C 1018.8 hPa SSW 1.4 km/h 3.2 km/h 15% 0 mm 0.0 W/m2
04:59 17.7 °C -9.3 °C 1018.8 hPa South 3.2 km/h 8 km/h 15% 0 mm 0.0 W/m2
05:04 17.8 °C -9.2 °C 1018.8 hPa SSW 4.7 km/h 11.3 km/h 15% 0 mm 0.0 W/m2
05:09 17.9 °C -9.1 °C 1018.8 hPa SSW 1.4 km/h 3.2 km/h 15% 0 mm 0.0 W/m2
05:15 18 °C -9.9 °C 1018.8 hPa Calm   6.4 km/h 14% 0 mm 0.0 W/m2
05:21 17.9 °C -10 °C 1018.8 hPa SSW 1.4 km/h 4.8 km/h 14% 0 mm 0.0 W/m2
05:26 17.9 °C -10.9 °C 1018.8 hPa Calm   6.4 km/h 13% 0 mm 0.0 W/m2
05:29 17.9 °C -10.9 °C 1018.8 hPa SE 3.2 km/h 3.2 km/h 13% 0 mm 0.0 W/m2
05:34 17.9 °C -11.9 °C 1019.2 hPa South 1.4 km/h 14.5 km/h 12% 0 mm 0.0 W/m2
05:40 18 °C -11.9 °C 1019.2 hPa SSE 3.2 km/h 9.7 km/h 12% 0 mm 0.0 W/m2
05:45 18.1 °C -11.8 °C 1019.2 hPa SSE 6.4 km/h 12.9 km/h 12% 0 mm 0.0 W/m2
05:48 18.1 °C -11.8 °C 1019.2 hPa Calm   11.3 km/h 12% 0 mm 0.0 W/m2
05:53 18.3 °C -12.7 °C 1019.2 hPa Calm   11.3 km/h 11% 0 mm 0.0 W/m2
05:58 18.4 °C -12.6 °C 1019.2 hPa Calm   9.7 km/h 11% 0 mm 0.0 W/m2
06:03 18.4 °C -12.6 °C 1019.2 hPa SSW 3.2 km/h 6.4 km/h 11% 0 mm 0.0 W/m2
06:09 18.4 °C -12.6 °C 1019.2 hPa SSW 1.4 km/h 9.7 km/h 11% 0 mm 0.0 W/m2
06:15 18.4 °C -12.6 °C 1019.2 hPa SE 1.4 km/h 3.2 km/h 11% 0 mm 5.0 W/m2
06:20 18.3 °C -12.7 °C 1019.5 hPa South 6.4 km/h 6.4 km/h 11% 0 mm 7.0 W/m2
06:25 18.3 °C -15.2 °C 1019.5 hPa Calm   11.3 km/h 9% 0 mm 7.0 W/m2
06:30 18.3 °C -15.2 °C 1019.9 hPa WSW 3.2 km/h 11.3 km/h 9% 0 mm 9.0 W/m2
06:35 18.4 °C -15.1 °C 1019.9 hPa South 4.7 km/h 8 km/h 9% 0 mm 11.0 W/m2
06:40 18.4 °C -13.8 °C 1019.9 hPa SSW 3.2 km/h 6.4 km/h 10% 0 mm 12.0 W/m2
06:46 18.4 °C -12.6 °C 1019.9 hPa SW 6.4 km/h 11.3 km/h 11% 0 mm 14.0 W/m2
06:50 18.4 °C -13.8 °C 1019.9 hPa South 3.2 km/h 8 km/h 10% 0 mm 16.0 W/m2
06:55 18.5 °C -12.5 °C 1019.9 hPa SSW 11.1 km/h 17.7 km/h 11% 0 mm 16.0 W/m2
07:00 18.7 °C -12.4 °C 1019.9 hPa SW 6.4 km/h 14.5 km/h 11% 0 mm 18.0 W/m2
07:05 18.7 °C -13.6 °C 1020.2 hPa SSW 19.5 km/h 20.9 km/h 10% 0 mm 18.0 W/m2
07:10 19 °C -14.6 °C 1020.2 hPa WSW 1.4 km/h 9.7 km/h 9% 0 mm 19.0 W/m2
07:15 19.2 °C -12 °C 1020.2 hPa South 3.2 km/h 6.4 km/h 11% 0 mm 21.0 W/m2
07:18 19.2 °C -12 °C 1020.2 hPa SSW 4.7 km/h 11.3 km/h 11% 0 mm 21.0 W/m2
07:23 19.4 °C -11.8 °C 1020.2 hPa SW 1.4 km/h 16.1 km/h 11% 0 mm 21.0 W/m2
07:28 19.5 °C -11.8 °C 1020.5 hPa SSE 6.4 km/h 19.3 km/h 11% 0 mm 23.0 W/m2
07:31 19.6 °C -10.6 °C 1020.5 hPa SSE 9.7 km/h 9.7 km/h 12% 0 mm 23.0 W/m2
07:36 19.7 °C -10.5 °C 1020.5 hPa SE 11.1 km/h 11.3 km/h 12% 0 mm 23.0 W/m2
07:41 19.8 °C -9.4 °C 1020.5 hPa SSW 7.9 km/h 9.7 km/h 13% 0 mm 25.0 W/m2
07:46 19.9 °C -9.4 °C 1020.5 hPa SSW 1.4 km/h 6.4 km/h 13% 0 mm 125.0 W/m2
07:51 20.1 °C -9.2 °C 1020.5 hPa SSW 6.4 km/h 19.3 km/h 13% 0 mm 355.0 W/m2
07:57 20.4 °C -9 °C 1020.9 hPa Calm   12.9 km/h 13% 0 mm 401.0 W/m2
08:03 20.8 °C -8.6 °C 1020.5 hPa SSE 9.7 km/h 11.3 km/h 13% 0 mm 424.0 W/m2
08:08 21.2 °C -8.3 °C 1020.5 hPa SW 4.7 km/h 17.7 km/h 13% 0 mm 443.0 W/m2
08:13 21.4 °C -8.2 °C 1020.5 hPa SSE 1.4 km/h 11.3 km/h 13% 0 mm 466.0 W/m2
08:19 21.7 °C -7.9 °C 1020.9 hPa SSW 4.7 km/h 9.7 km/h 13% 0 mm 487.0 W/m2
08:24 21.9 °C -6.8 °C 1020.9 hPa ESE 3.2 km/h 3.2 km/h 14% 0 mm 506.0 W/m2
08:29 22.2 °C -6.6 °C 1020.9 hPa South 6.4 km/h 11.3 km/h 14% 0 mm 529.0 W/m2
08:34 22.4 °C -6.4 °C 1020.9 hPa South 3.2 km/h 11.3 km/h 14% 0 mm 545.0 W/m2
08:39 22.7 °C -6.2 °C 1020.9 hPa West 3.2 km/h 8 km/h 14% 0 mm 564.0 W/m2
08:44 22.8 °C -6.1 °C 1020.9 hPa SE 4.7 km/h 6.4 km/h 14% 0 mm 584.0 W/m2
08:49 23.1 °C -6.8 °C 1020.9 hPa SSE 7.9 km/h 9.7 km/h 13% 0 mm 605.0 W/m2
08:54 23.3 °C -7.7 °C 1020.9 hPa SSE 9.7 km/h 11.3 km/h 12% 0 mm 624.0 W/m2
09:05 23.7 °C -6.4 °C 1020.9 hPa SW 4.7 km/h 6.4 km/h 13% 0 mm 664.0 W/m2
09:09 23.7 °C -4.5 °C 1020.5 hPa South 13 km/h 13 km/h 15% 0 mm 679.0 W/m2
09:14 23.9 °C -6.2 °C 1020.9 hPa SE 4.7 km/h 11.3 km/h 13% 0 mm 696.0 W/m2
09:19 24.2 °C -6 °C 1020.9 hPa SSE 6.4 km/h 11.3 km/h 13% 0 mm 712.0 W/m2
09:24 24.3 °C -5.9 °C 1020.9 hPa South 16.3 km/h 17.7 km/h 13% 0 mm 729.0 W/m2
09:25 24.4 °C -6.9 °C 1020.9 hPa South 6.4 km/h 17.7 km/h 12% 0 mm 733.0 W/m2
09:30 24.5 °C -5.7 °C 1020.9 hPa SSW 7.9 km/h 14.5 km/h 13% 0 mm 749.0 W/m2
09:31 24.6 °C -5.7 °C 1020.9 hPa SE 6.4 km/h 14.5 km/h 13% 0 mm 754.0 W/m2
09:33 24.6 °C -5.7 °C 1020.9 hPa SE 1.4 km/h 11.3 km/h 13% 0 mm 759.0 W/m2
09:38 24.9 °C -6.5 °C 1020.9 hPa SSE 4.7 km/h 9.7 km/h 12% 0 mm 775.0 W/m2
09:43 25.2 °C -7.4 °C 1020.9 hPa SSW 1.4 km/h 8 km/h 11% 0 mm 793.0 W/m2
09:44 25.3 °C -7.3 °C 1020.9 hPa ESE 11.1 km/h 16.1 km/h 11% 0 mm 793.0 W/m2
09:50 25.3 °C -7.3 °C 1020.9 hPa SE 4.7 km/h 14.5 km/h 11% 0 mm 812.0 W/m2
09:51 25.3 °C -7.3 °C 1020.9 hPa SSE 14.3 km/h 17.7 km/h 11% 0 mm 816.0 W/m2
09:56 25.4 °C -7.2 °C 1020.9 hPa SE 7.9 km/h 14.5 km/h 11% 0 mm 831.0 W/m2
09:58 25.5 °C -7.1 °C 1020.9 hPa SE 7.9 km/h 12.9 km/h 11% 0 mm 840.0 W/m2
10:04 25.6 °C -7.1 °C 1020.9 hPa South 11.1 km/h 16.1 km/h 11% 0 mm 860.0 W/m2
10:09 25.7 °C -5.8 °C 1020.9 hPa SE 11.1 km/h 14.5 km/h 12% 0 mm 870.0 W/m2
10:14 25.8 °C -6.9 °C 1020.9 hPa ESE 9.7 km/h 16.1 km/h 11% 0 mm 884.0 W/m2
10:20 26.2 °C -6.6 °C 1020.9 hPa South 1.4 km/h 14.5 km/h 11% 0 mm 896.0 W/m2
10:25 26.3 °C -6.5 °C 1020.9 hPa SE 9.7 km/h 14.5 km/h 11% 0 mm 914.0 W/m2
10:30 26.6 °C -7.5 °C 1020.9 hPa SE 4.7 km/h 17.7 km/h 10% 0 mm 925.0 W/m2
10:37 26.8 °C -7.4 °C 1020.9 hPa SSE 6.4 km/h 14.5 km/h 10% 0 mm 942.0 W/m2
10:42 26.8 °C -8.7 °C 1020.9 hPa SE 9.7 km/h 14.5 km/h 9% 0 mm 956.0 W/m2
10:47 27 °C -10.1 °C 1020.9 hPa WSW 1.4 km/h 4.8 km/h 8% 0 mm 970.0 W/m2
10:52 27.2 °C -8.4 °C 1020.9 hPa SSW 4.7 km/h 6.4 km/h 9% 0 mm 984.0 W/m2
10:57 27.3 °C -9.9 °C 1020.9 hPa Calm   4.8 km/h 8% 0 mm 995.0 W/m2
11:02 27.6 °C -8.1 °C 1020.9 hPa SSE 4.7 km/h 9.7 km/h 9% 0 mm 1002.0 W/m2
11:08 27.6 °C -8.1 °C 1020.9 hPa SE 1.4 km/h 11.3 km/h 9% 0 mm 1009.0 W/m2
11:14 27.8 °C -8 °C 1020.5 hPa SE 6.4 km/h 14.5 km/h 9% 0 mm 1021.0 W/m2
11:19 28 °C -6.5 °C 1020.5 hPa Calm   6.4 km/h 10% 0 mm 1028.0 W/m2
11:24 28.1 °C -6.4 °C 1020.5 hPa Calm   4.8 km/h 10% 0 mm 1035.0 W/m2
11:29 28.2 °C -6.3 °C 1020.5 hPa SSE 6.4 km/h 11.3 km/h 10% 0 mm 1044.0 W/m2
11:34 28.2 °C -7.7 °C 1020.5 hPa ESE 1.4 km/h 12.9 km/h 9% 0 mm 1053.0 W/m2
11:40 28.2 °C -7.7 °C 1020.5 hPa SSW 4.7 km/h 8 km/h 9% 0 mm 1058.0 W/m2
11:45 28.1 °C -6.4 °C 1020.2 hPa SE 1.4 km/h 11.3 km/h 10% 0 mm 1065.0 W/m2
11:50 28.3 °C -6.2 °C 1020.2 hPa SSE 13 km/h 19.3 km/h 10% 0 mm 1071.0 W/m2
11:56 28.6 °C -7.4 °C 1020.2 hPa ENE 1.4 km/h 8 km/h 9% 0 mm 1078.0 W/m2
12:01 29 °C -5.7 °C 1020.2 hPa ESE 4.7 km/h 6.4 km/h 10% 0 mm 1081.0 W/m2
12:06 29.3 °C -6.9 °C 1020.2 hPa East 11.1 km/h 16.1 km/h 9% 0 mm 1085.0 W/m2
12:11 29.5 °C -8.2 °C 1019.9 hPa NE 4.7 km/h 8 km/h 8% 0 mm 1088.0 W/m2
12:16 29.7 °C -8.1 °C 1019.9 hPa West 7.9 km/h 9.7 km/h 8% 0 mm 1090.0 W/m2
12:22 29.7 °C -8.1 °C 1019.9 hPa Calm   12.9 km/h 8% 0 mm 1092.0 W/m2
12:27 29.8 °C -8 °C 1019.9 hPa ESE 7.9 km/h 16.1 km/h 8% 0 mm 1093.0 W/m2
12:32 30.1 °C -9.5 °C 1019.9 hPa ENE 3.2 km/h 9.7 km/h 7% 0 mm 1097.0 W/m2
12:38 30.1 °C -7.8 °C 1019.9 hPa North 3.2 km/h 11.3 km/h 8% 0 mm 1097.0 W/m2
12:43 30.3 °C -6.1 °C 1019.5 hPa South 16.3 km/h 17.7 km/h 9% 0 mm 1097.0 W/m2
12:48 30.5 °C -7.5 °C 1019.5 hPa ESE 9.7 km/h 12.9 km/h 8% 0 mm 1092.0 W/m2
12:53 30.7 °C -5.8 °C 1019.5 hPa WSW 11.1 km/h 14.5 km/h 9% 0 mm 1079.0 W/m2
12:58 30.4 °C -6 °C 1019.5 hPa West 4.7 km/h 14.5 km/h 9% 0 mm 1081.0 W/m2
13:03 30.6 °C -5.9 °C 1019.5 hPa NE 1.4 km/h 16.1 km/h 9% 0 mm 1092.0 W/m2
13:09 30.9 °C -7.2 °C 1019.2 hPa South 6.4 km/h 8 km/h 8% 0 mm 1092.0 W/m2
13:14 31.2 °C -7 °C 1019.5 hPa South 6.4 km/h 11.3 km/h 8% 0 mm 1083.0 W/m2
13:19 31.3 °C -6.9 °C 1019.2 hPa South 11.1 km/h 14.5 km/h 8% 0 mm 1079.0 W/m2
13:24 31.4 °C -6.8 °C 1019.2 hPa SSW 4.7 km/h 11.3 km/h 8% 0 mm 1085.0 W/m2
13:30 31.6 °C -8.4 °C 1019.2 hPa SSE 1.4 km/h 17.7 km/h 7% 0 mm 1086.0 W/m2
13:35 31.7 °C -8.3 °C 1019.2 hPa SW 1.4 km/h 11.3 km/h 7% 0 mm 1079.0 W/m2
13:40 31.7 °C -6.6 °C 1019.2 hPa SW 6.4 km/h 12.9 km/h 8% 0 mm 1076.0 W/m2
13:45 31.5 °C -6.7 °C 1019.2 hPa SW 6.4 km/h 12.9 km/h 8% 0 mm 1069.0 W/m2
13:49 31.3 °C -5.4 °C 1019.2 hPa SSE 13 km/h 14.5 km/h 9% 0 mm 1062.0 W/m2
13:54 31.4 °C -6.8 °C 1018.8 hPa SE 6.4 km/h 8 km/h 8% 0 mm 1058.0 W/m2
14:00 31.6 °C -6.7 °C 1018.8 hPa South 6.4 km/h 16.1 km/h 8% 0 mm 1053.0 W/m2
14:05 31.7 °C -6.6 °C 1018.8 hPa SE 3.2 km/h 11.3 km/h 8% 0 mm 1046.0 W/m2
14:08 31.9 °C -6.5 °C 1018.8 hPa South 6.4 km/h 11.3 km/h 8% 0 mm 1041.0 W/m2
14:14 32 °C -6.4 °C 1018.8 hPa SE 4.7 km/h 9.7 km/h 8% 0 mm 1030.0 W/m2
14:20 32.3 °C -4.6 °C 1018.8 hPa SSE 6.4 km/h 14.5 km/h 9% 0 mm 1021.0 W/m2
14:25 32.4 °C -4.5 °C 1018.8 hPa South 6.4 km/h 8 km/h 9% 0 mm 1007.0 W/m2
14:30 32.4 °C -4.5 °C 1018.5 hPa SSE 6.4 km/h 14.5 km/h 9% 0 mm 1000.0 W/m2
14:36 32.4 °C -4.5 °C 1018.5 hPa NE 1.4 km/h 6.4 km/h 9% 0 mm 990.0 W/m2
14:42 32.6 °C -1.7 °C 1018.5 hPa SSE 7.9 km/h 11.3 km/h 11% 0 mm 977.0 W/m2
14:47 32.8 °C -2.8 °C 1018.5 hPa South 4.7 km/h 11.3 km/h 10% 0 mm 969.0 W/m2
14:52 32.8 °C -2.8 °C 1018.5 hPa SSE 3.2 km/h 12.9 km/h 10% 0 mm 960.0 W/m2
14:57 32.9 °C -2.7 °C 1018.5 hPa South 9.7 km/h 9.7 km/h 10% 0 mm 947.0 W/m2
15:02 32.9 °C -2.7 °C 1018.2 hPa SE 9.7 km/h 14.5 km/h 10% 0 mm 937.0 W/m2
15:07 33 °C -1.4 °C 1018.2 hPa SSW 6.4 km/h 14.5 km/h 11% 0 mm 925.0 W/m2
15:12 32.9 °C -2.7 °C 1018.2 hPa SSW 9.7 km/h 24.1 km/h 10% 0 mm 911.0 W/m2
15:17 32.8 °C -2.8 °C 1018.2 hPa SSW 1.4 km/h 12.9 km/h 10% 0 mm 898.0 W/m2
15:18 32.7 °C -2.9 °C 1018.2 hPa SSW 1.4 km/h 11.3 km/h 10% 0 mm 895.0 W/m2
15:23 32.6 °C -3 °C 1018.2 hPa West 3.2 km/h 9.7 km/h 10% 0 mm 882.0 W/m2
15:29 32.6 °C -1.7 °C 1017.8 hPa SSW 7.9 km/h 14.5 km/h 11% 0 mm 868.0 W/m2
15:34 32.7 °C -2.9 °C 1017.8 hPa SSW 3.2 km/h 9.7 km/h 10% 0 mm 853.0 W/m2
15:40 32.4 °C -3.1 °C 1017.8 hPa SSW 4.7 km/h 14.5 km/h 10% 0 mm 837.0 W/m2
15:45 32.4 °C -1.8 °C 1017.8 hPa South 7.9 km/h 16.1 km/h 11% 0 mm 821.0 W/m2
15:50 32.7 °C -1.6 °C 1017.5 hPa South 4.7 km/h 11.3 km/h 11% 0 mm 807.0 W/m2
15:55 33 °C -2.7 °C 1017.5 hPa SSE 11.1 km/h 16.1 km/h 10% 0 mm 788.0 W/m2
16:00 33 °C -2.7 °C 1017.5 hPa South 7.9 km/h 8 km/h 10% 0 mm 775.0 W/m2
16:05 33.1 °C -2.6 °C 1017.5 hPa SSE 6.4 km/h 11.3 km/h 10% 0 mm 758.0 W/m2
16:10 33.2 °C -2.5 °C 1017.5 hPa SE 11.1 km/h 14.5 km/h 10% 0 mm 740.0 W/m2
16:15 33 °C -2.7 °C 1017.2 hPa SSW 11.1 km/h 12.9 km/h 10% 0 mm 722.0 W/m2
16:18 32.9 °C -2.7 °C 1017.2 hPa ESE 4.7 km/h 12.9 km/h 10% 0 mm 712.0 W/m2
16:23 32.9 °C -2.7 °C 1017.5 hPa SE 7.9 km/h 12.9 km/h 10% 0 mm 698.0 W/m2
16:26 32.9 °C -2.7 °C 1017.5 hPa SE 3.2 km/h 6.4 km/h 10% 0 mm 689.0 W/m2
16:31 32.9 °C -4.2 °C 1017.2 hPa Calm   8 km/h 9% 0 mm 671.0 W/m2
16:36 33 °C -2.7 °C 1017.2 hPa SW 1.4 km/h 11.3 km/h 10% 0 mm 656.0 W/m2
16:42 32.9 °C -2.7 °C 1017.2 hPa South 9.7 km/h 11.3 km/h 10% 0 mm 635.0 W/m2
16:47 33.1 °C -1.3 °C 1017.2 hPa SE 6.4 km/h 12.9 km/h 11% 0 mm 617.0 W/m2
16:51 33.1 °C -2.6 °C 1017.2 hPa SSE 3.2 km/h 12.9 km/h 10% 0 mm 598.0 W/m2
16:56 32.9 °C -1.5 °C 1017.2 hPa West 7.9 km/h 20.9 km/h 11% 0 mm 580.0 W/m2
17:01 32.7 °C -1.6 °C 1017.2 hPa Calm   11.3 km/h 11% 0 mm 563.0 W/m2
17:06 32.6 °C -1.7 °C 1017.2 hPa SSE 3.2 km/h 14.5 km/h 11% 0 mm 545.0 W/m2
17:11 32.6 °C -3 °C 1017.2 hPa SSE 9.7 km/h 11.3 km/h 10% 0 mm 524.0 W/m2
17:14 32.6 °C -3 °C 1017.2 hPa Calm   11.3 km/h 10% 0 mm 517.0 W/m2
17:19 32.4 °C -1.8 °C 1017.2 hPa SSW 3.2 km/h 9.7 km/h 11% 0 mm 497.0 W/m2
17:24 32.4 °C -1.8 °C 1016.8 hPa SE 9.7 km/h 14.5 km/h 11% 0 mm 478.0 W/m2
17:29 32.4 °C -1.8 °C 1017.2 hPa SE 3.2 km/h 14.5 km/h 11% 0 mm 459.0 W/m2
17:34 32.3 °C -1.9 °C 1017.2 hPa SE 17.7 km/h 17.7 km/h 11% 0 mm 441.0 W/m2
17:39 32.1 °C -2.1 °C 1016.8 hPa SSE 1.4 km/h 12.9 km/h 11% 0 mm 420.0 W/m2
17:44 32 °C -2.1 °C 1017.2 hPa SSE 6.4 km/h 17.7 km/h 11% 0 mm 399.0 W/m2
17:49 31.7 °C -2.4 °C 1016.8 hPa SSW 6.4 km/h 11.3 km/h 11% 0 mm 380.0 W/m2
17:54 31.7 °C -2.4 °C 1017.2 hPa SW 1.4 km/h 27.4 km/h 11% 0 mm 359.0 W/m2
18:00 31.4 °C -2.6 °C 1017.2 hPa SSE 6.4 km/h 11.3 km/h 11% 0 mm 338.0 W/m2
18:05 31.4 °C -2.6 °C 1017.2 hPa South 4.7 km/h 11.3 km/h 11% 0 mm 316.0 W/m2
18:10 31.4 °C -2.6 °C 1017.2 hPa SSE 9.7 km/h 14.5 km/h 11% 0 mm 297.0 W/m2
18:15 31.4 °C -2.6 °C 1017.2 hPa Calm   17.7 km/h 11% 0 mm 276.0 W/m2
18:20 31.4 °C -2.6 °C 1017.2 hPa SE 11.1 km/h 14.5 km/h 11% 0 mm 257.0 W/m2
18:21 31.4 °C -2.6 °C 1017.2 hPa SE 14.3 km/h 14.5 km/h 11% 0 mm 253.0 W/m2
18:26 31.3 °C -2.7 °C 1017.2 hPa South 6.4 km/h 17.7 km/h 11% 0 mm 232.0 W/m2
18:31 31.2 °C -2.8 °C 1017.2 hPa SE 7.9 km/h 17.7 km/h 11% 0 mm 211.0 W/m2
18:36 31.1 °C -2.8 °C 1017.2 hPa SSE 6.4 km/h 12.9 km/h 11% 0 mm 183.0 W/m2
18:40 30.7 °C -3.1 °C 1017.5 hPa SE 7.9 km/h 16.1 km/h 11% 0 mm 65.0 W/m2
18:46 30.3 °C -3.4 °C 1017.5 hPa SE 6.4 km/h 14.5 km/h 11% 0 mm 33.0 W/m2
18:51 30 °C -2.5 °C 1017.5 hPa SSE 6.4 km/h 12.9 km/h 12% 0 mm 26.0 W/m2
18:56 29.8 °C -2.7 °C 1017.5 hPa ESE 4.7 km/h 12.9 km/h 12% 0 mm 25.0 W/m2
19:01 29.6 °C -2.8 °C 1017.5 hPa SE 7.9 km/h 14.5 km/h 12% 0 mm 23.0 W/m2
19:04 29.4 °C -3 °C 1017.5 hPa SE 4.7 km/h 17.7 km/h 12% 0 mm 23.0 W/m2
19:09 29.2 °C -3.1 °C 1017.8 hPa SE 6.4 km/h 9.7 km/h 12% 0 mm 19.0 W/m2
19:14 28.9 °C -3.4 °C 1017.8 hPa ESE 7.9 km/h 9.7 km/h 12% 0 mm 16.0 W/m2
19:19 28.7 °C -3.5 °C 1017.8 hPa South 11.1 km/h 14.5 km/h 12% 0 mm 14.0 W/m2
19:24 28.4 °C -3.7 °C 1017.8 hPa SSE 1.4 km/h 12.9 km/h 12% 0 mm 11.0 W/m2
19:29 28.2 °C -3.9 °C 1017.8 hPa SSE 4.7 km/h 12.9 km/h 12% 0 mm 9.0 W/m2
19:35 28.1 °C -4 °C 1018.2 hPa SSW 6.4 km/h 9.7 km/h 12% 0 mm 5.0 W/m2
19:37 28 °C -3 °C 1018.2 hPa South 3.2 km/h 9.7 km/h 13% 0 mm 5.0 W/m2
19:42 27.8 °C -3.1 °C 1018.2 hPa SE 4.7 km/h 11.3 km/h 13% 0 mm 0.0 W/m2
19:47 27.6 °C -3.3 °C 1018.2 hPa SE 7.9 km/h 12.9 km/h 13% 0 mm 0.0 W/m2
19:52 27.4 °C -3.5 °C 1018.2 hPa South 4.7 km/h 11.3 km/h 13% 0 mm 0.0 W/m2
19:57 27.2 °C -2.6 °C 1018.5 hPa ESE 7.9 km/h 9.7 km/h 14% 0 mm 0.0 W/m2
20:02 27.1 °C -2.7 °C 1018.5 hPa SSE 3.2 km/h 12.9 km/h 14% 0 mm 0.0 W/m2
20:07 26.9 °C -2.9 °C 1018.5 hPa SE 1.4 km/h 12.9 km/h 14% 0 mm 0.0 W/m2
20:12 26.9 °C -2.9 °C 1018.5 hPa South 11.1 km/h 12.9 km/h 14% 0 mm 0.0 W/m2
20:18 26.8 °C -2.9 °C 1018.5 hPa SSE 11.1 km/h 11.3 km/h 14% 0 mm 0.0 W/m2
20:23 26.7 °C -2.1 °C 1018.5 hPa South 13 km/h 13 km/h 15% 0 mm 0.0 W/m2
20:28 26.6 °C -2.2 °C 1018.8 hPa SE 4.7 km/h 9.7 km/h 15% 0 mm 0.0 W/m2
20:33 26.5 °C -2.2 °C 1018.8 hPa ESE 4.7 km/h 6.4 km/h 15% 0 mm 0.0 W/m2
20:38 26.3 °C -2.4 °C 1018.8 hPa SE 3.2 km/h 8 km/h 15% 0 mm 0.0 W/m2
20:43 26.2 °C -1.6 °C 1018.8 hPa East 1.4 km/h 9.7 km/h 16% 0 mm 0.0 W/m2
20:48 26 °C -1.8 °C 1018.8 hPa Calm   1.6 km/h 16% 0 mm 0.0 W/m2
20:54 25.8 °C -1.9 °C 1019.2 hPa Calm   8 km/h 16% 0 mm 0.0 W/m2
20:59 25.7 °C -2 °C 1019.2 hPa ESE 4.7 km/h 8 km/h 16% 0 mm 0.0 W/m2
21:05 25.6 °C -1.3 °C 1019.2 hPa SSE 4.7 km/h 8 km/h 17% 0 mm 0.0 W/m2
21:08 25.5 °C -1.3 °C 1019.2 hPa SE 1.4 km/h 9.7 km/h 17% 0 mm 0.0 W/m2
21:09 25.5 °C -1.3 °C 1019.2 hPa SE 1.4 km/h 6.4 km/h 17% 0 mm 0.0 W/m2
21:15 25.4 °C -1.4 °C 1019.2 hPa SSE 4.7 km/h 8 km/h 17% 0 mm 0.0 W/m2
21:21 25.2 °C -1.6 °C 1019.2 hPa Calm   8 km/h 17% 0 mm 0.0 W/m2
21:26 25.2 °C -1.6 °C 1019.2 hPa Calm   4.8 km/h 17% 0 mm 0.0 W/m2
21:31 25.1 °C -0.9 °C 1019.5 hPa Calm     18% 0 mm 0.0 W/m2
21:36 24.9 °C -1.1 °C 1019.5 hPa SE 1.4 km/h 4.8 km/h 18% 0 mm 0.0 W/m2
21:38 24.8 °C -1.9 °C 1019.5 hPa Calm   6.4 km/h 17% 0 mm 0.0 W/m2
21:43 24.7 °C -2 °C 1019.5 hPa Calm   3.2 km/h 17% 0 mm 0.0 W/m2
21:48 24.6 °C -1.3 °C 1019.5 hPa SE 3.2 km/h 3.2 km/h 18% 0 mm 0.0 W/m2
21:53 24.4 °C -2.2 °C 1019.5 hPa Calm   6.4 km/h 17% 0 mm 0.0 W/m2
21:56 24.4 °C -1.5 °C 1019.5 hPa Calm     18% 0 mm 0.0 W/m2
22:02 24.3 °C -1.5 °C 1019.5 hPa Calm   1.6 km/h 18% 0 mm 0.0 W/m2
22:06 24.2 °C -0.9 °C 1019.5 hPa Calm     19% 0 mm 0.0 W/m2
22:11 23.9 °C -1.1 °C 1019.9 hPa Calm     19% 0 mm 0.0 W/m2
22:16 23.8 °C -1.2 °C 1019.9 hPa Calm   1.6 km/h 19% 0 mm 0.0 W/m2
22:21 23.6 °C -0.7 °C 1019.9 hPa Calm     20% 0 mm 0.0 W/m2
22:26 23.5 °C -0.8 °C 1019.9 hPa Calm     20% 0 mm 0.0 W/m2
22:31 23.3 °C -0.3 °C 1019.9 hPa Calm     21% 0 mm 0.0 W/m2
22:36 23.1 °C -1.1 °C 1019.9 hPa Calm     20% 0 mm 0.0 W/m2
22:43 22.9 °C -1.3 °C 1019.9 hPa Calm   6.4 km/h 20% 0 mm 0.0 W/m2
22:48 22.8 °C 0 °C 1019.9 hPa Calm   3.2 km/h 22% 0 mm 0.0 W/m2
22:53 22.8 °C -1.3 °C 1019.9 hPa ESE 1.4 km/h 8 km/h 20% 0 mm 0.0 W/m2
22:58 22.8 °C -0.7 °C 1019.9 hPa Calm   3.2 km/h 21% 0 mm 0.0 W/m2
23:01 22.8 °C -0.7 °C 1019.9 hPa Calm     21% 0 mm 0.0 W/m2
23:06 22.7 °C -0.8 °C 1020.2 hPa Calm     21% 0 mm 0.0 W/m2
23:11 22.6 °C -0.8 °C 1020.2 hPa Calm     21% 0 mm 0.0 W/m2
23:14 22.6 °C -0.8 °C 1020.2 hPa Calm   1.6 km/h 21% 0 mm 0.0 W/m2
23:19 22.6 °C -0.8 °C 1020.2 hPa Calm   1.6 km/h 21% 0 mm 0.0 W/m2
23:24 22.4 °C -0.4 °C 1020.5 hPa Calm     22% 0 mm 0.0 W/m2
23:29 22.3 °C -0.5 °C 1020.5 hPa Calm     22% 0 mm 0.0 W/m2
23:35 22.2 °C 0.1 °C 1020.5 hPa Calm   1.6 km/h 23% 0 mm 0.0 W/m2
23:40 22.1 °C 0 °C 1020.5 hPa Calm   3.2 km/h 23% 0 mm 0.0 W/m2
23:45 22 °C -0.7 °C 1020.5 hPa Calm   6.4 km/h 22% 0 mm 0.0 W/m2
23:50 22 °C -0.7 °C 1020.9 hPa WSW 3.2 km/h 3.2 km/h 22% 0 mm 0.0 W/m2
23:55 22 °C -0.7 °C 1020.5 hPa Calm   4.8 km/h 22% 0 mm 0.0 W/m2
Olympia, Windhoek, Namibia
Compliments of Weather Underground - 3.5 mb